Time;durP1;ratioP1;P1;durP2;ratioP2;P2;SDS_P1;SDS_P2;PMS_P1;PMS_P2;Temp;Humidity;BMP_temperature;BMP_pressure;BME280_temperature;BME280_humidity;BME280_pressure;Samples;Min_cycle;Max_cycle;Signal;HPM_P1;HPM_P2
2022/01/20 00:01:55;;;;;;;31.00;17.80;;;;;;;0.40;81.33;99788.23;84420;1334;22643;-79
2022/01/20 00:04:15;;;;;;;27.40;17.10;;;;;;;0.44;81.25;99785.80;84444;1335;22569;-80
2022/01/20 00:07:15;;;;;;;28.70;16.30;;;;;;;0.45;81.23;99781.86;84430;1333;22624;-80
2022/01/20 00:09:36;;;;;;;29.30;17.00;;;;;;;0.46;81.11;99776.36;84297;1337;22645;-77
2022/01/20 00:26:54;;;;;;;26.70;16.00;;;;;;;0.51;80.42;99748.36;84453;1333;24162;-77
2022/01/20 00:29:03;;;;;;;29.40;16.30;;;;;;;0.53;80.20;99750.91;84447;1334;22607;-78
2022/01/20 00:31:33;;;;;;;31.30;17.90;;;;;;;0.53;80.21;99746.95;84447;1334;25443;-78
2022/01/20 00:33:49;;;;;;;32.10;17.60;;;;;;;0.54;80.40;99738.54;84443;1330;22606;-81
2022/01/20 00:38:26;;;;;;;28.70;17.10;;;;;;;0.54;80.21;99721.02;84437;1335;22900;-81
2022/01/20 00:40:37;;;;;;;28.30;17.50;;;;;;;0.54;79.99;99713.31;84405;1334;22640;-79
2022/01/20 00:42:46;;;;;;;31.70;17.00;;;;;;;0.56;79.98;99709.54;84440;1334;22618;-80
2022/01/20 00:44:55;;;;;;;30.10;18.20;;;;;;;0.57;79.97;99706.26;84439;1329;22776;-81
2022/01/20 00:47:05;;;;;;;27.90;16.80;;;;;;;0.60;80.16;99707.45;84446;1334;22621;-80
2022/01/20 00:49:14;;;;;;;27.40;16.10;;;;;;;0.63;80.24;99701.91;84427;1333;23032;-79
2022/01/20 00:51:24;;;;;;;31.00;17.70;;;;;;;0.65;79.89;99696.25;84426;1329;22610;-81
2022/01/20 00:53:33;;;;;;;31.50;17.60;;;;;;;0.66;79.83;99689.88;84458;1329;24954;-81
2022/01/20 00:55:45;;;;;;;33.50;18.60;;;;;;;0.66;79.92;99686.45;84451;1333;23941;-81
2022/01/20 00:57:54;;;;;;;28.00;16.40;;;;;;;0.66;79.81;99689.54;84346;1337;22617;-77
2022/01/20 01:00:10;;;;;;;30.30;17.40;;;;;;;0.65;79.57;99685.95;84444;1330;23096;-78
2022/01/20 01:02:21;;;;;;;33.20;17.00;;;;;;;0.66;79.67;99684.73;84459;1334;22816;-77
2022/01/20 01:04:33;;;;;;;24.60;16.60;;;;;;;0.67;79.64;99677.85;84461;1334;22625;-77
2022/01/20 01:09:24;;;;;;;22.10;15.80;;;;;;;0.74;79.73;99664.56;82061;1371;545248;-76
2022/01/20 01:11:36;;;;;;;29.90;16.70;;;;;;;0.75;79.67;99658.90;84712;1328;22645;-76
2022/01/20 01:13:49;;;;;;;30.40;17.40;;;;;;;0.78;79.45;99656.11;84724;1330;22909;-81
2022/01/20 01:16:01;;;;;;;29.20;17.00;;;;;;;0.80;79.47;99649.77;84688;1322;22596;-82
2022/01/20 01:21:09;;;;;;;31.30;17.70;;;;;;;0.81;79.51;99652.32;84676;1329;22611;-77
2022/01/20 01:23:15;;;;;;;28.60;16.00;;;;;;;0.81;79.30;99646.83;84594;1328;272765;-79
2022/01/20 01:25:27;;;;;;;24.50;16.80;;;;;;;0.82;79.45;99644.39;84768;1328;22589;-81
2022/01/20 01:27:39;;;;;;;24.10;16.10;;;;;;;0.85;79.33;99643.01;84780;1322;24138;-81
2022/01/20 01:30:07;;;;;;;25.90;16.10;;;;;;;0.88;79.28;99638.49;84792;1327;22786;-80
2022/01/20 01:32:47;;;;;;;24.60;16.40;;;;;;;0.91;79.39;99631.44;84756;1328;23961;-81
2022/01/20 01:35:11;;;;;;;25.00;16.50;;;;;;;0.94;79.37;99619.90;84804;1328;22606;-81
2022/01/20 01:38:24;;;;;;;32.20;18.40;;;;;;;0.96;79.31;99611.11;84733;1328;24160;-77
2022/01/20 01:40:14;;;;;;;26.30;16.80;;;;;;;0.97;79.25;99606.30;84821;1325;22620;-77
2022/01/20 01:42:32;;;;;;;30.40;18.60;;;;;;;0.97;79.15;99597.19;84826;1327;23920;-77
2022/01/20 01:44:41;;;;;;;26.70;16.10;;;;;;;0.97;79.04;99598.55;84807;1326;22631;-77
2022/01/20 01:46:53;;;;;;;26.60;16.00;;;;;;;0.98;79.41;99598.38;84601;1329;24215;-76
2022/01/20 01:49:02;;;;;;;24.20;14.80;;;;;;;0.99;79.33;99590.31;84796;1325;22594;-76
2022/01/20 01:51:11;;;;;;;27.50;17.00;;;;;;;1.00;79.36;99588.22;84679;1330;24304;-76
2022/01/20 01:53:21;;;;;;;32.20;16.00;;;;;;;1.02;79.53;99587.50;84683;1328;22600;-81
2022/01/20 01:55:30;;;;;;;26.40;17.80;;;;;;;1.04;79.51;99580.64;84783;1327;22602;-81
2022/01/20 01:57:39;;;;;;;31.40;18.50;;;;;;;1.05;79.61;99578.39;84816;1327;22628;-77
2022/01/20 01:59:49;;;;;;;32.10;19.20;;;;;;;1.05;79.69;99577.02;84814;1323;22881;-77
2022/01/20 02:01:59;;;;;;;27.00;16.90;;;;;;;1.04;79.85;99575.81;84636;1326;22879;-76
2022/01/20 02:04:16;;;;;;;31.90;18.40;;;;;;;1.02;79.89;99574.12;84801;1318;22651;-76
2022/01/20 02:06:46;;;;;;;30.90;17.30;;;;;;;1.01;80.07;99564.34;84778;1327;22696;-77
2022/01/20 02:09:15;;;;;;;31.30;18.50;;;;;;;0.99;80.15;99564.37;84811;1327;22600;-77
2022/01/20 02:18:51;;;;;;;33.70;20.40;;;;;;;0.96;81.16;99547.05;84821;1326;22788;-77
2022/01/20 02:21:02;;;;;;;34.80;21.30;;;;;;;0.94;81.13;99544.16;84769;1324;24360;-77
2022/01/20 02:23:14;;;;;;;31.70;19.70;;;;;;;0.92;81.08;99537.66;84793;1323;22613;-80
2022/01/20 02:25:28;;;;;;;29.80;18.50;;;;;;;0.89;81.32;99531.70;84792;1327;23968;-80
2022/01/20 02:27:40;;;;;;;29.50;19.70;;;;;;;0.86;81.60;99526.58;84788;1327;25293;-77
2022/01/20 02:29:53;;;;;;;31.90;18.90;;;;;;;0.85;81.69;99518.19;84787;1327;22630;-76
2022/01/20 02:32:02;;;;;;;29.80;18.20;;;;;;;0.85;81.91;99514.92;84064;1330;1003612;-77
2022/01/20 02:34:16;;;;;;;33.00;19.30;;;;;;;0.85;82.13;99513.90;84767;1330;24273;-77
2022/01/20 02:36:26;;;;;;;35.00;19.90;;;;;;;0.83;82.13;99507.89;84796;1318;23149;-78
2022/01/20 02:38:37;;;;;;;;;;;;;;;0.82;82.59;99497.26;84631;1329;22574;-76
2022/01/20 02:45:49;;;;;;;32.60;19.40;;;;;;;0.78;82.91;99489.59;84801;1327;22709;-77
2022/01/20 02:47:58;;;;;;;28.80;18.10;;;;;;;0.77;82.88;99486.67;84866;1318;22820;-78
2022/01/20 02:50:08;;;;;;;27.60;17.80;;;;;;;0.79;82.87;99486.84;84867;1325;22606;-77
2022/01/20 02:52:18;;;;;;;37.60;20.90;;;;;;;0.78;83.26;99484.95;84878;1324;23875;-80
2022/01/20 02:54:28;;;;;;;32.10;19.10;;;;;;;0.78;83.12;99475.86;84863;1326;26528;-81
2022/01/20 02:56:37;;;;;;;34.80;19.20;;;;;;;0.80;83.16;99468.80;84881;1323;22706;-81
2022/01/20 02:58:46;;;;;;;29.10;19.60;;;;;;;0.80;83.45;99467.60;84868;1325;22633;-80
2022/01/20 03:00:58;;;;;;;32.60;19.90;;;;;;;0.77;83.23;99459.73;84872;1323;22961;-81
2022/01/20 03:03:07;;;;;;;35.80;19.20;;;;;;;0.76;83.47;99454.60;84878;1324;22580;-80
2022/01/20 03:05:18;;;;;;;33.00;18.90;;;;;;;0.75;83.56;99448.77;84842;1322;24249;-80
2022/01/20 03:07:28;;;;;;;29.50;19.70;;;;;;;0.74;83.44;99441.75;84869;1322;22580;-81
2022/01/20 03:09:37;;;;;;;29.00;18.10;;;;;;;0.73;83.81;99439.52;84834;1326;22693;-80
2022/01/20 03:11:49;;;;;;;28.90;17.80;;;;;;;0.73;83.72;99437.81;84790;1327;22600;-81
2022/01/20 03:13:58;;;;;;;26.20;18.10;;;;;;;0.73;83.69;99435.23;84891;1315;23064;-77
2022/01/20 03:16:11;;;;;;;30.90;19.40;;;;;;;0.73;83.92;99434.03;84862;1324;23885;-77
2022/01/20 03:18:20;;;;;;;34.00;19.20;;;;;;;0.71;84.39;99426.51;84914;1324;22615;-78
2022/01/20 03:20:32;;;;;;;31.50;18.50;;;;;;;0.71;84.25;99425.65;84812;1327;26031;-77
2022/01/20 03:22:42;;;;;;;27.50;17.60;;;;;;;0.69;84.01;99424.83;84883;1324;24203;-78
2022/01/20 03:24:55;;;;;;;28.00;19.00;;;;;;;0.70;84.29;99423.77;84848;1324;24266;-77
2022/01/20 03:27:07;;;;;;;28.90;17.50;;;;;;;0.69;84.55;99414.88;84848;1324;22594;-78
2022/01/20 03:29:19;;;;;;;25.80;18.10;;;;;;;0.68;84.46;99418.81;84847;1324;22585;-77
2022/01/20 03:31:30;;;;;;;32.80;18.60;;;;;;;0.70;84.68;99414.69;84888;1324;22687;-77
2022/01/20 03:33:39;;;;;;;27.90;19.00;;;;;;;0.71;84.92;99415.35;84874;1324;22940;-77
2022/01/20 03:35:50;;;;;;;29.90;19.00;;;;;;;0.71;84.82;99411.24;84837;1328;22602;-77
2022/01/20 03:37:59;;;;;;;28.70;18.80;;;;;;;0.70;85.00;99413.48;84893;1324;22625;-77
2022/01/20 03:40:10;;;;;;;27.70;17.90;;;;;;;0.70;85.01;99412.80;84865;1319;22939;-77
2022/01/20 03:42:22;;;;;;;24.90;16.70;;;;;;;0.71;85.19;99412.77;84893;1323;22892;-77
2022/01/20 03:44:31;;;;;;;27.00;16.10;;;;;;;0.75;85.15;99409.65;84773;1328;25472;-76
2022/01/20 03:46:44;;;;;;;21.50;15.50;;;;;;;0.77;85.35;99408.58;84849;1324;25561;-77
2022/01/20 03:49:03;;;;;;;23.40;16.70;;;;;;;0.77;85.48;99410.12;84869;1325;22626;-77
2022/01/20 03:51:15;;;;;;;21.50;15.60;;;;;;;0.76;85.40;99410.66;84809;1322;22641;-76
2022/01/20 03:53:24;;;;;;;23.40;16.90;;;;;;;0.75;85.55;99403.11;84815;1327;25571;-80
2022/01/20 03:55:36;;;;;;;25.50;16.40;;;;;;;0.75;85.52;99406.20;84907;1324;22605;-80
2022/01/20 03:57:45;;;;;;;22.10;14.80;;;;;;;0.76;85.68;99394.69;84885;1324;22644;-77
2022/01/20 03:59:54;;;;;;;22.90;14.50;;;;;;;0.77;85.76;99396.38;84881;1327;25494;-77
2022/01/20 04:02:06;;;;;;;19.90;13.70;;;;;;;0.80;85.68;99397.56;84800;1327;23602;-77
2022/01/20 04:04:15;;;;;;;17.50;13.90;;;;;;;0.83;85.65;99390.11;84875;1323;22664;-77
2022/01/20 04:06:28;;;;;;;21.40;15.60;;;;;;;0.86;85.75;99387.00;84874;1323;22599;-77
2022/01/20 04:08:38;;;;;;;23.50;15.10;;;;;;;0.87;86.02;99386.63;84882;1325;22610;-77
2022/01/20 04:10:48;;;;;;;22.10;14.80;;;;;;;0.87;86.06;99387.83;84818;1329;25468;-76
2022/01/20 04:13:00;;;;;;;26.40;15.50;;;;;;;0.86;86.11;99389.05;84895;1325;22658;-76
2022/01/20 04:15:11;;;;;;;23.10;14.40;;;;;;;0.86;85.99;99387.67;84853;1320;22838;-76
2022/01/20 04:17:21;;;;;;;20.40;13.50;;;;;;;0.87;86.23;99388.02;84887;1325;22799;-81
2022/01/20 04:19:32;;;;;;;19.10;13.30;;;;;;;0.87;86.46;99383.89;84869;1324;25644;-80
2022/01/20 04:21:44;;;;;;;18.90;13.30;;;;;;;0.86;86.33;99384.58;84827;1324;22608;-79
2022/01/20 04:23:53;;;;;;;17.30;13.20;;;;;;;0.87;86.63;99381.47;84849;1324;24277;-80
2022/01/20 04:26:02;;;;;;;19.30;13.90;;;;;;;0.89;86.56;99379.74;84870;1323;25483;-80
2022/01/20 04:28:16;;;;;;;21.10;14.50;;;;;;;0.91;86.48;99379.71;84857;1324;22635;-80
2022/01/20 04:30:26;;;;;;;15.90;11.60;;;;;;;0.93;86.75;99376.23;84831;1327;22630;-81
2022/01/20 04:32:36;;;;;;;16.30;13.20;;;;;;;0.94;86.46;99375.37;84821;1327;22549;-78
2022/01/20 04:34:46;;;;;;;17.00;12.70;;;;;;;0.96;86.49;99369.67;84817;1322;22704;-80
2022/01/20 04:37:00;;;;;;;;;;;;;;;0.98;86.50;99368.60;84839;1328;22643;-77
2022/01/20 04:39:13;;;;;;;19.10;13.20;;;;;;;0.99;86.56;99374.27;84838;1325;25440;-76
2022/01/20 04:41:28;;;;;;;17.60;12.00;;;;;;;1.02;86.41;99374.89;84831;1326;22833;-76
2022/01/20 04:43:38;;;;;;;15.60;11.60;;;;;;;1.05;86.60;99373.14;84835;1327;22594;-79
2022/01/20 04:45:56;;;;;;;16.60;13.00;;;;;;;1.06;86.65;99370.73;84824;1325;22599;-80
2022/01/20 04:48:18;;;;;;;17.50;12.90;;;;;;;1.07;86.54;99365.90;84788;1325;22584;-80
2022/01/20 04:57:52;;;;;;;18.60;13.10;;;;;;;1.09;86.74;99359.52;84870;1326;22709;-80
2022/01/20 05:00:05;;;;;;;16.60;12.00;;;;;;;1.12;86.54;99354.31;84832;1325;25415;-80
2022/01/20 05:02:15;;;;;;;19.20;13.40;;;;;;;1.13;86.76;99352.73;84827;1328;22623;-78
2022/01/20 05:04:28;;;;;;;17.80;13.50;;;;;;;1.16;86.68;99356.66;84799;1327;22592;-76
2022/01/20 05:06:39;;;;;;;18.80;14.20;;;;;;;1.17;86.57;99355.25;84761;1327;22604;-76
2022/01/20 05:08:52;;;;;;;22.40;14.00;;;;;;;1.17;86.81;99342.89;84747;1327;22854;-75
2022/01/20 05:11:04;;;;;;;21.50;13.50;;;;;;;1.16;86.56;99348.23;84821;1328;22637;-75
2022/01/20 05:13:22;;;;;;;17.60;12.00;;;;;;;1.17;86.62;99349.92;84760;1330;22602;-75
2022/01/20 05:15:33;;;;;;;16.80;13.30;;;;;;;1.18;86.56;99343.39;84806;1327;25310;-75
2022/01/20 05:17:46;;;;;;;16.50;12.00;;;;;;;1.21;86.63;99344.89;84834;1328;22583;-77
2022/01/20 05:19:55;;;;;;;16.50;12.30;;;;;;;1.24;86.62;99337.97;84812;1325;24116;-77
2022/01/20 05:22:05;;;;;;;18.60;12.00;;;;;;;1.26;86.69;99336.55;84743;1327;22716;-79
2022/01/20 05:24:17;;;;;;;16.80;12.80;;;;;;;1.29;86.83;99336.16;84794;1327;23944;-79
2022/01/20 05:26:26;;;;;;;20.30;13.60;;;;;;;1.28;86.55;99330.67;84823;1319;22818;-80
2022/01/20 05:28:35;;;;;;;17.40;12.20;;;;;;;1.26;86.50;99334.48;84825;1327;22623;-75
2022/01/20 05:30:44;;;;;;;17.70;12.80;;;;;;;1.27;86.49;99332.06;84771;1326;22594;-76
2022/01/20 05:32:56;;;;;;;17.80;13.00;;;;;;;1.27;86.41;99338.08;84815;1327;23917;-80
2022/01/20 05:35:05;;;;;;;16.40;13.10;;;;;;;1.29;86.65;99333.59;84829;1328;25539;-81
2022/01/20 05:37:17;;;;;;;17.90;12.50;;;;;;;1.30;86.67;99333.74;84719;1328;26496;-80
2022/01/20 05:39:26;;;;;;;18.90;12.80;;;;;;;1.31;86.35;99339.05;84806;1325;23933;-79
2022/01/20 05:41:35;;;;;;;15.00;10.90;;;;;;;1.31;86.34;99337.66;84842;1327;25616;-80
2022/01/20 05:43:47;;;;;;;18.90;11.50;;;;;;;1.32;86.35;99352.61;84834;1323;22602;-79
2022/01/20 05:45:59;;;;;;;17.50;12.00;;;;;;;1.32;86.16;99366.18;84816;1328;22597;-77
2022/01/20 05:48:12;;;;;;;12.80;7.80;;;;;;;1.29;86.11;99357.30;84806;1318;22642;-77
2022/01/20 05:50:22;;;;;;;8.20;5.40;;;;;;;1.24;85.31;99349.30;84811;1326;22600;-79
2022/01/20 05:52:31;;;;;;;7.20;5.10;;;;;;;1.18;85.30;99352.50;82704;1323;1003506;-79
2022/01/20 05:54:40;;;;;;;7.80;5.20;;;;;;;1.15;85.20;99354.95;84836;1318;22612;-79
2022/01/20 05:56:54;;;;;;;6.20;5.30;;;;;;;1.13;85.05;99356.70;84849;1326;22590;-80
2022/01/20 05:59:07;;;;;;;11.20;5.60;;;;;;;1.10;85.12;99358.82;84772;1327;22602;-78
2022/01/20 06:01:19;;;;;;;8.30;4.30;;;;;;;1.09;85.07;99359.17;84856;1327;24367;-80
2022/01/20 06:03:37;;;;;;;8.50;5.30;;;;;;;1.07;85.16;99364.17;84821;1327;22596;-80
2022/01/20 06:05:49;;;;;;;12.50;4.70;;;;;;;1.05;84.99;99373.67;82704;1327;1004352;-75
2022/01/20 06:07:59;;;;;;;9.10;4.20;;;;;;;1.01;85.05;99374.73;84806;1327;25997;-76
2022/01/20 06:10:09;;;;;;;5.50;3.80;;;;;;;0.98;84.82;99375.65;84812;1322;22604;-76
2022/01/20 06:12:19;;;;;;;;;;;;;;;0.95;84.60;99373.13;84741;1329;22708;-75
2022/01/20 06:14:29;;;;;;;10.50;4.30;;;;;;;0.89;84.55;99372.88;84830;1326;22589;-76
2022/01/20 06:16:41;;;;;;;7.90;3.00;;;;;;;0.87;84.78;99373.23;84819;1327;25494;-76
2022/01/20 06:18:51;;;;;;;8.70;3.50;;;;;;;0.86;84.63;99379.09;84846;1328;22588;-81
2022/01/20 06:20:59;;;;;;;7.00;3.50;;;;;;;0.84;84.75;99378.08;84835;1328;22602;-80
2022/01/20 06:23:10;;;;;;;9.80;3.50;;;;;;;0.81;84.40;99381.40;84837;1327;22597;-82
2022/01/20 06:25:19;;;;;;;10.40;3.60;;;;;;;0.79;84.66;99376.96;84827;1326;22602;-80
2022/01/20 06:27:32;;;;;;;7.60;3.50;;;;;;;0.78;84.74;99375.08;84849;1327;22586;-75
2022/01/20 06:29:44;;;;;;;9.80;2.80;;;;;;;0.76;84.25;99369.96;84733;1330;23052;-77
2022/01/20 06:31:56;;;;;;;11.10;4.00;;;;;;;0.71;84.31;99367.98;84849;1327;23937;-77
2022/01/20 06:34:05;;;;;;;9.90;2.40;;;;;;;0.67;84.24;99362.20;84766;1331;22619;-80
2022/01/20 06:36:17;;;;;;;5.70;2.10;;;;;;;0.64;84.21;99358.64;84803;1318;24355;-80
2022/01/20 06:38:29;;;;;;;7.00;3.60;;;;;;;0.63;84.22;99356.41;84848;1327;22601;-75
2022/01/20 06:40:41;;;;;;;8.20;4.20;;;;;;;0.61;84.10;99348.39;84820;1327;22602;-76
2022/01/20 06:42:53;;;;;;;9.80;3.30;;;;;;;0.62;83.92;99343.73;84845;1327;22583;-80
2022/01/20 06:45:10;;;;;;;7.80;2.10;;;;;;;0.61;84.04;99343.94;84848;1327;22630;-82
2022/01/20 06:47:20;;;;;;;4.60;1.80;;;;;;;0.58;83.72;99343.62;84867;1329;22637;-75
2022/01/20 06:49:33;;;;;;;9.00;2.60;;;;;;;0.53;83.39;99347.12;84788;1330;25264;-76
2022/01/20 06:51:42;;;;;;;8.00;2.10;;;;;;;0.47;83.29;99347.38;84808;1328;22646;-76
2022/01/20 06:53:54;;;;;;;7.20;2.10;;;;;;;0.42;83.31;99347.10;84829;1327;23874;-75
2022/01/20 06:56:04;;;;;;;7.70;2.10;;;;;;;0.35;83.16;99342.89;84684;1331;24385;-75
2022/01/20 06:58:16;;;;;;;6.70;1.60;;;;;;;0.30;83.10;99346.05;84831;1325;22696;-82
2022/01/20 07:00:26;;;;;;;9.20;2.40;;;;;;;0.25;83.07;99343.55;84797;1328;22809;-81
2022/01/20 07:02:38;;;;;;;4.20;1.40;;;;;;;0.20;83.07;99342.24;84834;1329;23987;-75
2022/01/20 07:04:47;;;;;;;9.10;2.20;;;;;;;0.15;83.04;99345.03;84764;1328;25441;-76
2022/01/20 07:06:59;;;;;;;4.00;1.70;;;;;;;0.12;82.87;99348.33;84839;1327;23905;-79
2022/01/20 07:09:12;;;;;;;6.50;2.60;;;;;;;0.07;82.77;99348.40;84810;1327;24248;-76
2022/01/20 07:11:27;;;;;;;6.60;2.10;;;;;;;0.05;83.09;99351.00;84836;1325;22710;-76
2022/01/20 07:13:37;;;;;;;13.90;3.00;;;;;;;0.02;82.91;99352.39;84815;1328;23770;-76
2022/01/20 07:15:49;;;;;;;8.80;2.40;;;;;;;-0.04;82.93;99354.69;84814;1329;22750;-76
2022/01/20 07:17:58;;;;;;;3.80;1.60;;;;;;;-0.09;82.85;99353.56;84814;1322;22636;-81
2022/01/20 07:20:16;;;;;;;8.60;2.70;;;;;;;-0.14;82.86;99355.48;84800;1327;22691;-80
2022/01/20 07:22:25;;;;;;;8.70;2.30;;;;;;;-0.18;83.10;99357.08;84889;1329;22586;-76
2022/01/20 07:24:35;;;;;;;6.70;2.10;;;;;;;-0.22;83.05;99358.15;84800;1327;24302;-75
2022/01/20 07:29:08;;;;;;;4.80;1.50;;;;;;;-0.26;82.69;99346.53;84743;1321;22596;-74
2022/01/20 07:31:29;;;;;;;7.40;2.60;;;;;;;-0.26;82.97;99339.67;84834;1327;22592;-75
2022/01/20 07:33:42;;;;;;;9.20;2.40;;;;;;;-0.24;82.86;99333.49;84854;1326;24260;-79
2022/01/20 07:35:57;;;;;;;7.70;2.70;;;;;;;-0.22;82.67;99330.90;84815;1327;25466;-76
2022/01/20 07:38:06;;;;;;;12.90;3.80;;;;;;;-0.22;82.69;99328.85;84793;1327;24388;-80
2022/01/20 07:40:19;;;;;;;10.00;3.00;;;;;;;-0.22;82.67;99335.87;84825;1328;22555;-81
2022/01/20 07:42:33;;;;;;;9.80;3.50;;;;;;;-0.23;82.61;99334.85;84086;1325;1015050;-79
2022/01/20 07:44:42;;;;;;;10.40;2.90;;;;;;;-0.21;82.48;99341.17;84838;1329;22607;-80
2022/01/20 07:46:58;;;;;;;5.10;2.20;;;;;;;-0.16;82.48;99341.82;84122;1327;1003861;-78
2022/01/20 07:49:08;;;;;;;12.80;3.80;;;;;;;0.14;83.01;99338.86;84717;1328;22602;-75
2022/01/20 07:51:20;;;;;;;;;;;;;;;0.89;83.46;99330.45;84788;1329;26449;-74
2022/01/20 07:53:29;;;;;;;9.70;3.10;;;;;;;1.76;83.44;99323.45;84834;1323;22678;-79
2022/01/20 07:55:39;;;;;;;10.70;3.10;;;;;;;2.60;82.61;99315.50;84798;1328;25380;-79
2022/01/20 07:57:48;;;;;;;9.10;4.00;;;;;;;3.39;81.27;99307.91;84810;1329;22657;-80
2022/01/20 08:00:00;;;;;;;6.60;2.60;;;;;;;4.07;79.53;99300.70;84817;1327;22722;-79
2022/01/20 08:02:12;;;;;;;9.40;3.20;;;;;;;4.56;77.38;99298.57;84885;1327;22602;-73
2022/01/20 08:04:26;;;;;;;6.40;2.70;;;;;;;4.91;75.37;99298.17;84795;1327;22605;-75
2022/01/20 08:06:37;;;;;;;12.00;3.70;;;;;;;5.19;74.15;99305.36;84813;1329;22884;-74
2022/01/20 08:08:47;;;;;;;9.40;2.30;;;;;;;5.30;73.47;99308.48;84834;1329;24356;-74
2022/01/20 08:11:00;;;;;;;8.80;3.00;;;;;;;5.24;71.78;99307.48;84830;1327;22728;-74
2022/01/20 08:13:15;;;;;;;12.10;3.60;;;;;;;5.05;71.18;99308.96;84762;1329;22680;-74
2022/01/20 08:15:25;;;;;;;8.80;3.20;;;;;;;4.91;71.00;99314.05;84818;1327;22673;-76
2022/01/20 08:17:41;;;;;;;6.30;3.10;;;;;;;4.77;70.65;99312.26;84835;1327;24343;-80
2022/01/20 08:19:51;;;;;;;7.90;2.10;;;;;;;4.62;69.76;99313.42;84790;1325;23934;-78
2022/01/20 08:22:02;;;;;;;6.80;3.10;;;;;;;4.34;70.01;99306.50;84842;1328;22759;-78
2022/01/20 08:24:15;;;;;;;11.20;2.50;;;;;;;4.13;70.20;99297.45;84816;1327;22592;-75
2022/01/20 08:26:27;;;;;;;11.30;3.30;;;;;;;3.96;70.05;99287.73;84813;1328;22611;-74
2022/01/20 08:28:44;;;;;;;8.80;3.30;;;;;;;3.81;70.48;99283.35;84792;1327;22710;-74
2022/01/20 08:31:00;;;;;;;9.90;3.70;;;;;;;3.68;70.25;99280.08;84835;1329;24444;-73
2022/01/20 08:33:11;;;;;;;8.50;2.50;;;;;;;3.50;70.24;99283.33;84727;1331;22852;-79
2022/01/20 08:35:31;;;;;;;7.70;3.10;;;;;;;3.37;70.63;99277.12;84796;1327;22607;-79
2022/01/20 08:37:42;;;;;;;;;;;;;;;3.32;71.42;99276.90;84800;1327;23079;-79
2022/01/20 08:39:54;;;;;;;15.20;4.30;;;;;;;3.25;71.59;99266.73;84833;1326;25342;-79
2022/01/20 08:42:22;;;;;;;5.50;2.50;;;;;;;3.19;71.31;99253.80;84801;1324;22603;-74
2022/01/20 08:44:45;;;;;;;6.30;3.20;;;;;;;3.12;72.03;99251.91;84862;1326;22592;-72
2022/01/20 08:47:20;;;;;;;6.50;2.30;;;;;;;3.20;72.22;99245.69;84803;1327;24242;-78
2022/01/20 08:49:44;;;;;;;10.10;3.00;;;;;;;3.44;71.63;99251.76;84817;1328;22725;-73
2022/01/20 08:51:59;;;;;;;;;;;;;;;3.80;72.07;99268.17;84824;1329;24228;-78
2022/01/20 08:54:08;;;;;;;6.20;2.80;;;;;;;3.96;71.58;99277.73;84841;1323;22843;-78
2022/01/20 08:56:26;;;;;;;4.80;1.80;;;;;;;3.99;71.07;99277.30;84849;1329;23947;-78
2022/01/20 08:58:35;;;;;;;7.90;2.20;;;;;;;3.96;70.16;99272.89;84843;1326;22594;-74
2022/01/20 09:00:45;;;;;;;5.50;1.90;;;;;;;3.98;69.04;99266.80;84802;1325;22699;-74
2022/01/20 09:03:26;;;;;;;5.00;1.60;;;;;;;3.97;69.07;99265.64;84784;1327;22695;-74
2022/01/20 09:05:40;;;;;;;7.00;2.00;;;;;;;3.95;69.33;99278.48;84826;1321;22613;-75
2022/01/20 09:07:54;;;;;;;5.70;1.80;;;;;;;3.90;69.59;99273.59;84775;1327;22845;-74
2022/01/20 09:10:07;;;;;;;6.00;2.40;;;;;;;3.81;69.28;99265.04;84756;1327;25291;-76
2022/01/20 09:17:17;;;;;;;10.60;2.30;;;;;;;3.53;69.28;99273.76;84702;1328;22654;-83
2022/01/20 09:19:30;;;;;;;9.80;2.70;;;;;;;3.43;68.79;99274.39;84731;1326;22599;-78
2022/01/20 09:21:42;;;;;;;8.00;2.10;;;;;;;3.32;69.12;99273.64;84770;1330;22657;-79
2022/01/20 09:23:54;;;;;;;11.20;2.40;;;;;;;3.20;68.96;99265.32;84027;1328;1041413;-78
2022/01/20 09:26:03;;;;;;;5.30;2.00;;;;;;;3.09;68.99;99258.21;84737;1327;22823;-78
2022/01/20 09:28:15;;;;;;;6.90;2.00;;;;;;;3.01;69.18;99248.21;84775;1327;26076;-75
2022/01/20 09:30:27;;;;;;;9.20;1.90;;;;;;;2.96;69.01;99255.75;84769;1326;22596;-75
2022/01/20 09:32:39;;;;;;;8.00;2.10;;;;;;;2.94;69.31;99266.84;84772;1327;22654;-79
2022/01/20 09:34:49;;;;;;;10.80;2.30;;;;;;;2.92;69.58;99274.30;84784;1322;22712;-79
2022/01/20 09:36:59;;;;;;;15.00;3.30;;;;;;;2.88;69.62;99269.40;84727;1329;22680;-78
2022/01/20 09:39:08;;;;;;;13.70;2.40;;;;;;;2.80;69.56;99259.09;84759;1327;22593;-76
2022/01/20 09:41:19;;;;;;;9.00;3.00;;;;;;;2.71;69.36;99255.00;84771;1327;22594;-78
2022/01/20 09:43:29;;;;;;;9.00;2.20;;;;;;;2.61;69.13;99253.34;84751;1330;24361;-79
2022/01/20 09:45:38;;;;;;;7.90;2.30;;;;;;;2.46;68.38;99251.64;84768;1327;23958;-79
2022/01/20 09:47:49;;;;;;;7.10;2.40;;;;;;;2.33;68.79;99249.17;84748;1330;22594;-79
2022/01/20 09:49:58;;;;;;;10.10;3.70;;;;;;;2.22;68.64;99243.21;84761;1327;23139;-79
2022/01/20 09:52:07;;;;;;;4.80;2.00;;;;;;;2.16;68.66;99255.06;84682;1331;22615;-79
2022/01/20 09:54:17;;;;;;;9.10;2.40;;;;;;;2.09;68.27;99248.84;84695;1330;22592;-78
2022/01/20 09:56:26;;;;;;;6.10;1.80;;;;;;;2.03;67.53;99248.96;84745;1327;26454;-79
2022/01/20 09:58:52;;;;;;;5.70;1.40;;;;;;;1.93;66.23;99254.52;84696;1329;24101;-74
2022/01/20 10:01:05;;;;;;;3.60;1.20;;;;;;;1.85;67.01;99246.23;84738;1328;22683;-75
2022/01/20 10:03:17;;;;;;;8.20;1.70;;;;;;;1.82;66.95;99246.30;84754;1325;22583;-79
2022/01/20 10:05:36;;;;;;;4.30;1.30;;;;;;;1.82;66.67;99246.13;84772;1327;22597;-79
2022/01/20 10:07:46;;;;;;;5.00;1.90;;;;;;;1.89;66.29;99247.89;84799;1318;22830;-74
2022/01/20 10:10:00;;;;;;;6.10;1.60;;;;;;;2.07;66.93;99248.36;84838;1327;22586;-74
2022/01/20 10:12:12;;;;;;;4.00;1.70;;;;;;;2.15;66.10;99250.92;84812;1322;25449;-80
2022/01/20 10:14:22;;;;;;;4.40;1.40;;;;;;;2.12;64.71;99256.51;84831;1325;22612;-79
2022/01/20 10:16:35;;;;;;;8.40;2.40;;;;;;;2.05;64.97;99258.20;84792;1327;22624;-80
2022/01/20 10:18:53;;;;;;;8.20;2.10;;;;;;;2.03;63.88;99251.20;84811;1327;22655;-83
2022/01/20 10:21:03;;;;;;;4.20;2.00;;;;;;;2.02;64.62;99250.19;84745;1327;23109;-80
2022/01/20 10:23:12;;;;;;;7.80;2.00;;;;;;;2.12;65.10;99258.23;84861;1323;22650;-80
2022/01/20 10:25:25;;;;;;;8.50;2.60;;;;;;;2.27;65.62;99256.53;84825;1327;25291;-81
2022/01/20 10:27:36;;;;;;;6.20;2.50;;;;;;;2.34;65.51;99255.85;84776;1327;22619;-81
2022/01/20 10:30:00;;;;;;;5.20;2.50;;;;;;;2.40;65.10;99252.63;84846;1327;23973;-80
2022/01/20 10:32:12;;;;;;;9.50;2.80;;;;;;;2.45;65.30;99251.30;84857;1327;22615;-78
2022/01/20 10:34:30;;;;;;;7.40;2.60;;;;;;;2.52;66.04;99244.26;84836;1327;22626;-81
2022/01/20 10:36:52;;;;;;;7.10;2.20;;;;;;;2.57;66.06;99238.27;84104;1319;1003218;-81
2022/01/20 10:39:13;;;;;;;9.00;2.00;;;;;;;2.52;64.92;99239.95;84836;1327;22598;-77
2022/01/20 10:42:20;;;;;;;5.70;2.20;;;;;;;2.45;64.75;99223.95;84809;1322;22727;-81
2022/01/20 10:44:40;;;;;;;5.20;2.50;;;;;;;2.39;63.76;99223.56;84764;1330;22794;-79
2022/01/20 10:46:58;;;;;;;5.00;1.70;;;;;;;2.36;63.13;99223.45;84821;1325;22809;-79
2022/01/20 10:49:12;;;;;;;5.70;2.30;;;;;;;2.31;63.10;99216.00;84818;1327;22830;-79
2022/01/20 10:51:21;;;;;;;4.30;1.60;;;;;;;2.25;63.20;99205.98;84812;1327;24319;-80
2022/01/20 10:53:30;;;;;;;8.00;2.20;;;;;;;2.22;63.38;99210.54;84816;1326;22794;-75
2022/01/20 10:55:40;;;;;;;5.40;1.70;;;;;;;2.19;63.37;99216.10;84803;1326;22595;-76
2022/01/20 10:57:55;;;;;;;7.80;2.10;;;;;;;2.16;63.46;99217.20;84805;1327;23159;-79
2022/01/20 11:00:18;;;;;;;6.70;1.90;;;;;;;2.13;63.01;99216.77;84771;1322;22617;-79
2022/01/20 11:02:31;;;;;;;7.30;2.10;;;;;;;2.11;62.92;99213.86;84849;1326;22623;-78
2022/01/20 11:04:43;;;;;;;4.70;1.30;;;;;;;2.09;62.43;99204.98;84821;1329;22606;-78
2022/01/20 11:07:08;;;;;;;4.60;1.90;;;;;;;2.05;62.50;99211.94;84832;1328;22617;-77
2022/01/20 11:09:20;;;;;;;8.90;2.30;;;;;;;2.04;62.53;99210.91;84721;1329;22624;-78
2022/01/20 11:11:29;;;;;;;3.70;2.00;;;;;;;2.05;62.11;99209.52;84809;1329;22743;-79
2022/01/20 11:13:43;;;;;;;13.50;1.80;;;;;;;2.04;61.20;99208.34;84825;1329;25164;-78
2022/01/20 11:15:53;;;;;;;4.40;1.60;;;;;;;2.02;60.53;99217.51;84821;1322;22654;-80
2022/01/20 11:18:08;;;;;;;6.00;1.40;;;;;;;1.98;60.06;99218.12;84747;1322;22593;-75